sensor_id;sensor_type;location;lat;lon;timestamp;P1;durP1;ratioP1;P2;durP2;ratioP2
19985;SDS011;10154;52.474;10.768;2022-10-16T00:01:09;4.03;;;1.97;;
19985;SDS011;10154;52.474;10.768;2022-10-16T00:03:37;2.80;;;2.10;;
19985;SDS011;10154;52.474;10.768;2022-10-16T00:06:04;4.30;;;2.10;;
19985;SDS011;10154;52.474;10.768;2022-10-16T00:08:30;3.57;;;2.07;;
19985;SDS011;10154;52.474;10.768;2022-10-16T00:10:59;4.60;;;2.07;;
19985;SDS011;10154;52.474;10.768;2022-10-16T00:13:26;2.37;;;2.10;;
19985;SDS011;10154;52.474;10.768;2022-10-16T00:15:54;5.57;;;2.10;;
19985;SDS011;10154;52.474;10.768;2022-10-16T00:18:20;3.70;;;1.90;;
19985;SDS011;10154;52.474;10.768;2022-10-16T00:20:46;2.30;;;2.10;;
19985;SDS011;10154;52.474;10.768;2022-10-16T00:23:11;2.10;;;1.90;;
19985;SDS011;10154;52.474;10.768;2022-10-16T00:25:37;2.30;;;2.10;;
19985;SDS011;10154;52.474;10.768;2022-10-16T00:28:02;4.17;;;2.30;;
19985;SDS011;10154;52.474;10.768;2022-10-16T00:30:28;4.20;;;2.10;;
19985;SDS011;10154;52.474;10.768;2022-10-16T00:32:54;2.80;;;2.20;;
19985;SDS011;10154;52.474;10.768;2022-10-16T00:35:20;2.77;;;2.40;;
19985;SDS011;10154;52.474;10.768;2022-10-16T00:37:45;2.50;;;2.30;;
19985;SDS011;10154;52.474;10.768;2022-10-16T00:40:11;4.53;;;2.33;;
19985;SDS011;10154;52.474;10.768;2022-10-16T00:42:36;2.50;;;2.20;;
19985;SDS011;10154;52.474;10.768;2022-10-16T00:45:02;4.67;;;2.20;;
19985;SDS011;10154;52.474;10.768;2022-10-16T00:47:42;2.47;;;2.10;;
19985;SDS011;10154;52.474;10.768;2022-10-16T00:52:52;2.50;;;2.30;;
19985;SDS011;10154;52.474;10.768;2022-10-16T00:55:17;2.77;;;2.20;;
19985;SDS011;10154;52.474;10.768;2022-10-16T00:57:43;7.40;;;2.50;;
19985;SDS011;10154;52.474;10.768;2022-10-16T01:00:10;4.20;;;2.33;;
19985;SDS011;10154;52.474;10.768;2022-10-16T01:02:38;2.27;;;2.07;;
19985;SDS011;10154;52.474;10.768;2022-10-16T01:05:04;2.70;;;2.03;;
19985;SDS011;10154;52.474;10.768;2022-10-16T01:07:49;3.63;;;2.40;;
19985;SDS011;10154;52.474;10.768;2022-10-16T01:13:21;3.27;;;2.43;;
19985;SDS011;10154;52.474;10.768;2022-10-16T01:15:54;2.40;;;2.20;;
19985;SDS011;10154;52.474;10.768;2022-10-16T01:18:28;3.77;;;2.30;;
19985;SDS011;10154;52.474;10.768;2022-10-16T01:20:58;2.63;;;2.27;;
19985;SDS011;10154;52.474;10.768;2022-10-16T01:31:39;4.10;;;2.50;;
19985;SDS011;10154;52.474;10.768;2022-10-16T01:34:06;3.97;;;2.53;;
19985;SDS011;10154;52.474;10.768;2022-10-16T01:36:36;3.47;;;2.67;;
19985;SDS011;10154;52.474;10.768;2022-10-16T01:39:04;6.43;;;2.60;;
19985;SDS011;10154;52.474;10.768;2022-10-16T01:41:51;2.80;;;2.60;;
19985;SDS011;10154;52.474;10.768;2022-10-16T01:44:21;3.17;;;2.80;;
19985;SDS011;10154;52.474;10.768;2022-10-16T01:46:50;7.10;;;2.90;;
19985;SDS011;10154;52.474;10.768;2022-10-16T01:49:17;4.63;;;2.87;;
19985;SDS011;10154;52.474;10.768;2022-10-16T01:51:47;3.27;;;2.90;;
19985;SDS011;10154;52.474;10.768;2022-10-16T01:54:14;4.23;;;2.80;;
19985;SDS011;10154;52.474;10.768;2022-10-16T01:56:41;3.20;;;2.80;;
19985;SDS011;10154;52.474;10.768;2022-10-16T01:59:11;3.20;;;2.70;;
19985;SDS011;10154;52.474;10.768;2022-10-16T02:01:39;4.07;;;3.13;;
19985;SDS011;10154;52.474;10.768;2022-10-16T02:06:56;6.97;;;3.30;;
19985;SDS011;10154;52.474;10.768;2022-10-16T02:09:22;3.10;;;2.80;;
19985;SDS011;10154;52.474;10.768;2022-10-16T02:11:47;4.03;;;2.97;;
19985;SDS011;10154;52.474;10.768;2022-10-16T02:14:14;4.47;;;3.07;;
19985;SDS011;10154;52.474;10.768;2022-10-16T02:16:44;4.90;;;3.10;;
19985;SDS011;10154;52.474;10.768;2022-10-16T02:19:11;5.73;;;3.30;;
19985;SDS011;10154;52.474;10.768;2022-10-16T02:21:58;5.13;;;3.13;;
19985;SDS011;10154;52.474;10.768;2022-10-16T02:27:06;3.70;;;3.00;;
19985;SDS011;10154;52.474;10.768;2022-10-16T02:29:36;4.33;;;3.17;;
19985;SDS011;10154;52.474;10.768;2022-10-16T02:32:05;4.60;;;3.20;;
19985;SDS011;10154;52.474;10.768;2022-10-16T02:34:32;3.30;;;3.00;;
19985;SDS011;10154;52.474;10.768;2022-10-16T02:36:59;6.83;;;3.10;;
19985;SDS011;10154;52.474;10.768;2022-10-16T02:39:28;3.53;;;3.10;;
19985;SDS011;10154;52.474;10.768;2022-10-16T02:41:54;4.00;;;3.00;;
19985;SDS011;10154;52.474;10.768;2022-10-16T02:44:19;4.63;;;3.20;;
19985;SDS011;10154;52.474;10.768;2022-10-16T02:46:45;6.90;;;3.20;;
19985;SDS011;10154;52.474;10.768;2022-10-16T02:49:10;6.40;;;3.27;;
19985;SDS011;10154;52.474;10.768;2022-10-16T02:51:36;4.97;;;3.20;;
19985;SDS011;10154;52.474;10.768;2022-10-16T02:54:02;5.63;;;3.27;;
19985;SDS011;10154;52.474;10.768;2022-10-16T02:56:28;3.47;;;3.17;;
19985;SDS011;10154;52.474;10.768;2022-10-16T02:58:54;4.33;;;3.07;;
19985;SDS011;10154;52.474;10.768;2022-10-16T03:01:20;7.17;;;3.30;;
19985;SDS011;10154;52.474;10.768;2022-10-16T03:03:45;3.27;;;2.90;;
19985;SDS011;10154;52.474;10.768;2022-10-16T03:06:11;2.87;;;2.63;;
19985;SDS011;10154;52.474;10.768;2022-10-16T03:08:36;5.33;;;2.83;;
19985;SDS011;10154;52.474;10.768;2022-10-16T03:11:02;3.53;;;3.23;;
19985;SDS011;10154;52.474;10.768;2022-10-16T03:13:27;6.77;;;3.20;;
19985;SDS011;10154;52.474;10.768;2022-10-16T03:15:53;3.90;;;3.10;;
19985;SDS011;10154;52.474;10.768;2022-10-16T03:18:18;3.80;;;3.37;;
19985;SDS011;10154;52.474;10.768;2022-10-16T03:20:43;3.30;;;2.97;;
19985;SDS011;10154;52.474;10.768;2022-10-16T03:23:09;7.23;;;3.40;;
19985;SDS011;10154;52.474;10.768;2022-10-16T03:25:34;6.73;;;3.30;;
19985;SDS011;10154;52.474;10.768;2022-10-16T03:28:00;7.37;;;3.37;;
19985;SDS011;10154;52.474;10.768;2022-10-16T03:30:25;6.10;;;3.30;;
19985;SDS011;10154;52.474;10.768;2022-10-16T03:32:51;5.27;;;3.13;;
19985;SDS011;10154;52.474;10.768;2022-10-16T03:35:20;7.43;;;3.33;;
19985;SDS011;10154;52.474;10.768;2022-10-16T03:37:46;3.77;;;3.37;;
19985;SDS011;10154;52.474;10.768;2022-10-16T03:40:11;4.33;;;3.50;;
19985;SDS011;10154;52.474;10.768;2022-10-16T03:42:37;8.27;;;3.43;;
19985;SDS011;10154;52.474;10.768;2022-10-16T03:45:03;3.40;;;3.10;;
19985;SDS011;10154;52.474;10.768;2022-10-16T03:47:29;4.70;;;3.33;;
19985;SDS011;10154;52.474;10.768;2022-10-16T03:49:54;6.20;;;3.30;;
19985;SDS011;10154;52.474;10.768;2022-10-16T03:52:20;4.87;;;3.50;;
19985;SDS011;10154;52.474;10.768;2022-10-16T03:54:45;3.90;;;3.50;;
19985;SDS011;10154;52.474;10.768;2022-10-16T03:57:10;5.53;;;3.50;;
19985;SDS011;10154;52.474;10.768;2022-10-16T03:59:36;6.10;;;3.53;;
19985;SDS011;10154;52.474;10.768;2022-10-16T04:02:01;4.20;;;3.33;;
19985;SDS011;10154;52.474;10.768;2022-10-16T04:04:27;5.80;;;3.43;;
19985;SDS011;10154;52.474;10.768;2022-10-16T04:06:52;5.50;;;3.80;;
19985;SDS011;10154;52.474;10.768;2022-10-16T04:09:18;7.27;;;3.67;;
19985;SDS011;10154;52.474;10.768;2022-10-16T04:11:43;4.47;;;3.53;;
19985;SDS011;10154;52.474;10.768;2022-10-16T04:14:09;4.10;;;3.60;;
19985;SDS011;10154;52.474;10.768;2022-10-16T04:16:34;5.27;;;3.83;;
19985;SDS011;10154;52.474;10.768;2022-10-16T04:19:00;6.07;;;3.90;;
19985;SDS011;10154;52.474;10.768;2022-10-16T04:21:25;9.97;;;4.30;;
19985;SDS011;10154;52.474;10.768;2022-10-16T04:23:51;4.83;;;3.90;;
19985;SDS011;10154;52.474;10.768;2022-10-16T04:26:16;5.53;;;4.20;;
19985;SDS011;10154;52.474;10.768;2022-10-16T04:28:41;7.13;;;4.33;;
19985;SDS011;10154;52.474;10.768;2022-10-16T04:31:07;8.53;;;4.40;;
19985;SDS011;10154;52.474;10.768;2022-10-16T04:33:33;11.33;;;3.97;;
19985;SDS011;10154;52.474;10.768;2022-10-16T04:35:59;5.57;;;4.10;;
19985;SDS011;10154;52.474;10.768;2022-10-16T04:38:25;6.07;;;4.03;;
19985;SDS011;10154;52.474;10.768;2022-10-16T04:40:51;6.37;;;4.10;;
19985;SDS011;10154;52.474;10.768;2022-10-16T04:43:17;7.37;;;4.23;;
19985;SDS011;10154;52.474;10.768;2022-10-16T04:45:42;7.07;;;4.00;;
19985;SDS011;10154;52.474;10.768;2022-10-16T04:48:08;6.10;;;4.10;;
19985;SDS011;10154;52.474;10.768;2022-10-16T04:50:34;8.37;;;4.33;;
19985;SDS011;10154;52.474;10.768;2022-10-16T04:52:59;6.17;;;4.33;;
19985;SDS011;10154;52.474;10.768;2022-10-16T04:55:25;6.00;;;4.27;;
19985;SDS011;10154;52.474;10.768;2022-10-16T04:57:50;6.77;;;4.10;;
19985;SDS011;10154;52.474;10.768;2022-10-16T05:00:15;5.07;;;4.40;;
19985;SDS011;10154;52.474;10.768;2022-10-16T05:02:41;7.40;;;4.70;;
19985;SDS011;10154;52.474;10.768;2022-10-16T05:05:06;7.63;;;5.10;;
19985;SDS011;10154;52.474;10.768;2022-10-16T05:07:32;7.53;;;4.70;;
19985;SDS011;10154;52.474;10.768;2022-10-16T05:09:58;6.97;;;4.50;;
19985;SDS011;10154;52.474;10.768;2022-10-16T05:12:23;7.73;;;4.80;;
19985;SDS011;10154;52.474;10.768;2022-10-16T05:14:49;7.43;;;5.00;;
19985;SDS011;10154;52.474;10.768;2022-10-16T05:17:14;6.80;;;4.90;;
19985;SDS011;10154;52.474;10.768;2022-10-16T05:19:40;8.23;;;4.97;;
19985;SDS011;10154;52.474;10.768;2022-10-16T05:22:05;8.97;;;4.90;;
19985;SDS011;10154;52.474;10.768;2022-10-16T05:24:31;7.27;;;4.70;;
19985;SDS011;10154;52.474;10.768;2022-10-16T05:26:56;7.03;;;4.93;;
19985;SDS011;10154;52.474;10.768;2022-10-16T05:29:22;6.63;;;5.00;;
19985;SDS011;10154;52.474;10.768;2022-10-16T05:31:50;9.97;;;5.10;;
19985;SDS011;10154;52.474;10.768;2022-10-16T05:34:16;10.47;;;5.57;;
19985;SDS011;10154;52.474;10.768;2022-10-16T05:36:42;7.07;;;5.20;;
19985;SDS011;10154;52.474;10.768;2022-10-16T05:39:10;9.53;;;4.93;;
19985;SDS011;10154;52.474;10.768;2022-10-16T05:41:35;6.00;;;4.87;;
19985;SDS011;10154;52.474;10.768;2022-10-16T05:44:03;10.57;;;5.07;;
19985;SDS011;10154;52.474;10.768;2022-10-16T05:46:29;6.60;;;4.70;;
19985;SDS011;10154;52.474;10.768;2022-10-16T05:48:55;10.23;;;5.47;;
19985;SDS011;10154;52.474;10.768;2022-10-16T05:51:20;9.80;;;5.27;;
19985;SDS011;10154;52.474;10.768;2022-10-16T05:53:46;6.33;;;4.80;;
19985;SDS011;10154;52.474;10.768;2022-10-16T05:56:11;8.27;;;4.60;;
19985;SDS011;10154;52.474;10.768;2022-10-16T05:58:37;7.37;;;4.80;;
19985;SDS011;10154;52.474;10.768;2022-10-16T06:01:06;5.80;;;4.70;;
19985;SDS011;10154;52.474;10.768;2022-10-16T06:03:34;7.53;;;5.20;;
19985;SDS011;10154;52.474;10.768;2022-10-16T06:06:06;8.30;;;5.30;;
19985;SDS011;10154;52.474;10.768;2022-10-16T06:08:34;7.57;;;4.93;;
19985;SDS011;10154;52.474;10.768;2022-10-16T06:11:00;9.33;;;5.40;;
19985;SDS011;10154;52.474;10.768;2022-10-16T06:13:32;6.50;;;5.07;;
19985;SDS011;10154;52.474;10.768;2022-10-16T06:15:58;10.63;;;5.30;;
19985;SDS011;10154;52.474;10.768;2022-10-16T06:18:25;9.27;;;5.23;;
19985;SDS011;10154;52.474;10.768;2022-10-16T06:20:51;9.13;;;5.43;;
19985;SDS011;10154;52.474;10.768;2022-10-16T06:23:17;7.17;;;5.13;;
19985;SDS011;10154;52.474;10.768;2022-10-16T06:25:42;7.27;;;5.33;;
19985;SDS011;10154;52.474;10.768;2022-10-16T06:28:08;7.03;;;5.27;;
19985;SDS011;10154;52.474;10.768;2022-10-16T06:30:33;7.83;;;5.60;;
19985;SDS011;10154;52.474;10.768;2022-10-16T06:33:04;11.00;;;5.30;;
19985;SDS011;10154;52.474;10.768;2022-10-16T06:35:29;8.17;;;5.13;;
19985;SDS011;10154;52.474;10.768;2022-10-16T06:37:56;8.13;;;5.10;;
19985;SDS011;10154;52.474;10.768;2022-10-16T06:40:22;11.83;;;5.00;;
19985;SDS011;10154;52.474;10.768;2022-10-16T06:42:47;4.93;;;4.43;;
19985;SDS011;10154;52.474;10.768;2022-10-16T06:45:13;11.07;;;4.87;;
19985;SDS011;10154;52.474;10.768;2022-10-16T06:47:38;7.03;;;4.60;;
19985;SDS011;10154;52.474;10.768;2022-10-16T06:50:04;10.13;;;4.43;;
19985;SDS011;10154;52.474;10.768;2022-10-16T06:52:32;7.63;;;4.50;;
19985;SDS011;10154;52.474;10.768;2022-10-16T06:54:58;6.47;;;4.37;;
19985;SDS011;10154;52.474;10.768;2022-10-16T06:57:23;6.27;;;3.90;;
19985;SDS011;10154;52.474;10.768;2022-10-16T06:59:49;8.67;;;4.30;;
19985;SDS011;10154;52.474;10.768;2022-10-16T07:02:14;5.27;;;4.27;;
19985;SDS011;10154;52.474;10.768;2022-10-16T07:04:40;5.50;;;3.80;;
19985;SDS011;10154;52.474;10.768;2022-10-16T07:07:05;5.67;;;3.97;;
19985;SDS011;10154;52.474;10.768;2022-10-16T07:09:30;5.47;;;3.87;;
19985;SDS011;10154;52.474;10.768;2022-10-16T07:11:56;5.17;;;4.00;;
19985;SDS011;10154;52.474;10.768;2022-10-16T07:14:21;7.63;;;4.20;;
19985;SDS011;10154;52.474;10.768;2022-10-16T07:16:47;6.60;;;3.70;;
19985;SDS011;10154;52.474;10.768;2022-10-16T07:19:13;4.53;;;3.93;;
19985;SDS011;10154;52.474;10.768;2022-10-16T07:21:40;4.67;;;4.17;;
19985;SDS011;10154;52.474;10.768;2022-10-16T07:24:10;3.93;;;3.53;;
19985;SDS011;10154;52.474;10.768;2022-10-16T07:26:38;3.60;;;3.17;;
19985;SDS011;10154;52.474;10.768;2022-10-16T07:29:04;5.30;;;2.77;;
19985;SDS011;10154;52.474;10.768;2022-10-16T07:31:31;5.47;;;2.57;;
19985;SDS011;10154;52.474;10.768;2022-10-16T07:33:57;2.50;;;2.30;;
19985;SDS011;10154;52.474;10.768;2022-10-16T07:36:23;5.13;;;2.60;;
19985;SDS011;10154;52.474;10.768;2022-10-16T07:38:49;6.53;;;2.70;;
19985;SDS011;10154;52.474;10.768;2022-10-16T07:41:16;3.83;;;2.37;;
19985;SDS011;10154;52.474;10.768;2022-10-16T07:43:46;4.80;;;2.10;;
19985;SDS011;10154;52.474;10.768;2022-10-16T07:46:19;2.10;;;1.90;;
19985;SDS011;10154;52.474;10.768;2022-10-16T07:48:48;2.30;;;2.10;;
19985;SDS011;10154;52.474;10.768;2022-10-16T07:51:16;2.77;;;2.20;;
19985;SDS011;10154;52.474;10.768;2022-10-16T07:53:43;8.13;;;2.30;;
19985;SDS011;10154;52.474;10.768;2022-10-16T07:56:08;6.47;;;2.27;;
19985;SDS011;10154;52.474;10.768;2022-10-16T07:58:34;3.37;;;2.10;;
19985;SDS011;10154;52.474;10.768;2022-10-16T08:01:13;2.83;;;2.20;;
19985;SDS011;10154;52.474;10.768;2022-10-16T08:03:46;3.37;;;2.40;;
19985;SDS011;10154;52.474;10.768;2022-10-16T08:06:15;5.90;;;1.93;;
19985;SDS011;10154;52.474;10.768;2022-10-16T08:08:41;2.73;;;2.13;;
19985;SDS011;10154;52.474;10.768;2022-10-16T08:11:07;5.90;;;2.10;;
19985;SDS011;10154;52.474;10.768;2022-10-16T08:13:33;5.37;;;2.50;;
19985;SDS011;10154;52.474;10.768;2022-10-16T08:15:58;5.80;;;2.50;;
19985;SDS011;10154;52.474;10.768;2022-10-16T08:18:24;4.73;;;2.37;;
19985;SDS011;10154;52.474;10.768;2022-10-16T08:21:03;2.63;;;2.20;;
19985;SDS011;10154;52.474;10.768;2022-10-16T08:23:29;2.00;;;1.90;;
19985;SDS011;10154;52.474;10.768;2022-10-16T08:25:55;3.67;;;2.13;;
19985;SDS011;10154;52.474;10.768;2022-10-16T08:28:22;4.13;;;2.20;;
19985;SDS011;10154;52.474;10.768;2022-10-16T08:30:48;2.20;;;2.00;;
19985;SDS011;10154;52.474;10.768;2022-10-16T08:33:13;4.20;;;2.20;;
19985;SDS011;10154;52.474;10.768;2022-10-16T08:35:39;5.10;;;2.37;;
19985;SDS011;10154;52.474;10.768;2022-10-16T08:38:05;5.67;;;2.40;;
19985;SDS011;10154;52.474;10.768;2022-10-16T08:40:32;3.97;;;2.43;;
19985;SDS011;10154;52.474;10.768;2022-10-16T08:48:50;5.07;;;2.20;;
19985;SDS011;10154;52.474;10.768;2022-10-16T08:51:26;5.67;;;2.40;;
19985;SDS011;10154;52.474;10.768;2022-10-16T08:53:58;4.07;;;2.17;;
19985;SDS011;10154;52.474;10.768;2022-10-16T08:56:25;2.40;;;2.20;;
19985;SDS011;10154;52.474;10.768;2022-10-16T08:58:51;2.17;;;2.00;;
19985;SDS011;10154;52.474;10.768;2022-10-16T09:01:18;3.20;;;1.90;;
19985;SDS011;10154;52.474;10.768;2022-10-16T09:16:46;2.47;;;2.20;;
19985;SDS011;10154;52.474;10.768;2022-10-16T09:19:30;2.40;;;2.20;;
19985;SDS011;10154;52.474;10.768;2022-10-16T09:21:59;3.17;;;2.30;;
19985;SDS011;10154;52.474;10.768;2022-10-16T09:24:29;6.75;;;2.38;;
19985;SDS011;10154;52.474;10.768;2022-10-16T09:26:55;3.20;;;2.20;;
19985;SDS011;10154;52.474;10.768;2022-10-16T09:29:21;4.43;;;2.30;;
19985;SDS011;10154;52.474;10.768;2022-10-16T09:31:47;3.63;;;2.33;;
19985;SDS011;10154;52.474;10.768;2022-10-16T09:36:44;2.50;;;2.30;;
19985;SDS011;10154;52.474;10.768;2022-10-16T09:39:10;3.00;;;2.20;;
19985;SDS011;10154;52.474;10.768;2022-10-16T09:41:37;3.55;;;2.20;;
19985;SDS011;10154;52.474;10.768;2022-10-16T09:46:48;2.40;;;2.20;;
19985;SDS011;10154;52.474;10.768;2022-10-16T09:49:21;2.83;;;2.35;;
19985;SDS011;10154;52.474;10.768;2022-10-16T09:51:46;3.22;;;2.22;;
19985;SDS011;10154;52.474;10.768;2022-10-16T09:54:14;2.38;;;2.10;;
19985;SDS011;10154;52.474;10.768;2022-10-16T09:56:41;3.83;;;2.30;;
19985;SDS011;10154;52.474;10.768;2022-10-16T10:02:01;3.00;;;2.20;;
19985;SDS011;10154;52.474;10.768;2022-10-16T10:04:37;3.67;;;2.20;;
19985;SDS011;10154;52.474;10.768;2022-10-16T10:07:04;2.30;;;2.10;;
19985;SDS011;10154;52.474;10.768;2022-10-16T10:09:35;6.53;;;2.47;;
19985;SDS011;10154;52.474;10.768;2022-10-16T10:12:03;4.00;;;2.20;;
19985;SDS011;10154;52.474;10.768;2022-10-16T10:19:38;3.00;;;2.08;;
19985;SDS011;10154;52.474;10.768;2022-10-16T10:22:26;2.38;;;2.10;;
19985;SDS011;10154;52.474;10.768;2022-10-16T10:25:37;2.20;;;2.10;;
19985;SDS011;10154;52.474;10.768;2022-10-16T10:28:02;2.45;;;1.92;;
19985;SDS011;10154;52.474;10.768;2022-10-16T10:30:44;5.55;;;2.40;;
19985;SDS011;10154;52.474;10.768;2022-10-16T10:39:07;3.28;;;2.28;;
19985;SDS011;10154;52.474;10.768;2022-10-16T10:50:14;3.65;;;2.42;;
19985;SDS011;10154;52.474;10.768;2022-10-16T10:52:51;4.22;;;2.20;;
19985;SDS011;10154;52.474;10.768;2022-10-16T10:55:28;4.07;;;2.40;;
19985;SDS011;10154;52.474;10.768;2022-10-16T11:01:09;2.42;;;2.20;;
19985;SDS011;10154;52.474;10.768;2022-10-16T11:06:39;2.58;;;2.20;;
19985;SDS011;10154;52.474;10.768;2022-10-16T11:12:00;2.78;;;2.22;;
19985;SDS011;10154;52.474;10.768;2022-10-16T11:17:07;4.97;;;2.60;;
19985;SDS011;10154;52.474;10.768;2022-10-16T11:22:34;2.70;;;2.33;;
19985;SDS011;10154;52.474;10.768;2022-10-16T11:25:05;4.13;;;2.47;;
19985;SDS011;10154;52.474;10.768;2022-10-16T11:27:35;3.97;;;2.38;;
19985;SDS011;10154;52.474;10.768;2022-10-16T11:30:04;5.32;;;2.60;;
19985;SDS011;10154;52.474;10.768;2022-10-16T11:32:35;2.50;;;2.30;;
19985;SDS011;10154;52.474;10.768;2022-10-16T11:35:22;3.13;;;2.40;;
19985;SDS011;10154;52.474;10.768;2022-10-16T11:37:51;2.30;;;2.10;;
19985;SDS011;10154;52.474;10.768;2022-10-16T11:40:19;2.42;;;2.20;;
19985;SDS011;10154;52.474;10.768;2022-10-16T11:43:02;3.15;;;2.10;;
19985;SDS011;10154;52.474;10.768;2022-10-16T11:50:43;5.00;;;2.30;;
19985;SDS011;10154;52.474;10.768;2022-10-16T11:56:03;4.65;;;2.35;;
19985;SDS011;10154;52.474;10.768;2022-10-16T11:58:33;6.30;;;2.10;;
19985;SDS011;10154;52.474;10.768;2022-10-16T12:06:31;4.70;;;2.20;;
19985;SDS011;10154;52.474;10.768;2022-10-16T12:11:55;4.60;;;2.50;;
19985;SDS011;10154;52.474;10.768;2022-10-16T12:14:22;5.30;;;2.10;;
19985;SDS011;10154;52.474;10.768;2022-10-16T12:17:46;5.55;;;2.47;;
19985;SDS011;10154;52.474;10.768;2022-10-16T12:19:59;7.30;;;2.30;;
19985;SDS011;10154;52.474;10.768;2022-10-16T12:23:03;3.15;;;2.30;;
19985;SDS011;10154;52.474;10.768;2022-10-16T12:25:33;6.22;;;2.40;;
19985;SDS011;10154;52.474;10.768;2022-10-16T12:28:17;3.83;;;2.30;;
19985;SDS011;10154;52.474;10.768;2022-10-16T12:30:52;4.45;;;2.20;;
19985;SDS011;10154;52.474;10.768;2022-10-16T12:33:32;5.18;;;2.30;;
19985;SDS011;10154;52.474;10.768;2022-10-16T12:35:59;4.22;;;2.20;;
19985;SDS011;10154;52.474;10.768;2022-10-16T12:38:26;2.88;;;2.30;;
19985;SDS011;10154;52.474;10.768;2022-10-16T12:41:03;4.88;;;2.30;;
19985;SDS011;10154;52.474;10.768;2022-10-16T12:48:35;3.67;;;2.58;;
19985;SDS011;10154;52.474;10.768;2022-10-16T12:57:27;4.57;;;2.40;;
19985;SDS011;10154;52.474;10.768;2022-10-16T13:14:14;3.88;;;2.45;;
19985;SDS011;10154;52.474;10.768;2022-10-16T13:22:24;3.35;;;2.40;;
19985;SDS011;10154;52.474;10.768;2022-10-16T13:25:02;3.28;;;2.38;;
19985;SDS011;10154;52.474;10.768;2022-10-16T13:27:56;4.63;;;2.70;;
19985;SDS011;10154;52.474;10.768;2022-10-16T13:30:25;3.65;;;2.45;;
19985;SDS011;10154;52.474;10.768;2022-10-16T13:33:04;4.60;;;2.70;;
19985;SDS011;10154;52.474;10.768;2022-10-16T13:35:51;4.67;;;2.40;;
19985;SDS011;10154;52.474;10.768;2022-10-16T13:38:18;9.23;;;3.40;;
19985;SDS011;10154;52.474;10.768;2022-10-16T13:40:50;4.15;;;2.70;;
19985;SDS011;10154;52.474;10.768;2022-10-16T13:43:19;4.77;;;2.60;;
19985;SDS011;10154;52.474;10.768;2022-10-16T13:46:00;6.53;;;3.10;;
19985;SDS011;10154;52.474;10.768;2022-10-16T13:48:31;7.70;;;3.70;;
19985;SDS011;10154;52.474;10.768;2022-10-16T13:51:01;5.30;;;2.80;;
19985;SDS011;10154;52.474;10.768;2022-10-16T13:53:29;2.63;;;2.20;;
19985;SDS011;10154;52.474;10.768;2022-10-16T13:55:56;11.23;;;4.13;;
19985;SDS011;10154;52.474;10.768;2022-10-16T13:58:22;6.87;;;2.70;;
19985;SDS011;10154;52.474;10.768;2022-10-16T14:00:58;6.53;;;3.00;;
19985;SDS011;10154;52.474;10.768;2022-10-16T14:03:25;6.10;;;3.20;;
19985;SDS011;10154;52.474;10.768;2022-10-16T14:05:58;2.50;;;2.30;;
19985;SDS011;10154;52.474;10.768;2022-10-16T14:08:25;3.63;;;2.40;;
19985;SDS011;10154;52.474;10.768;2022-10-16T14:10:53;10.05;;;3.10;;
19985;SDS011;10154;52.474;10.768;2022-10-16T14:13:25;4.93;;;2.70;;
19985;SDS011;10154;52.474;10.768;2022-10-16T14:16:05;5.73;;;2.60;;
19985;SDS011;10154;52.474;10.768;2022-10-16T14:18:32;2.43;;;2.10;;
19985;SDS011;10154;52.474;10.768;2022-10-16T14:21:17;4.47;;;2.40;;
19985;SDS011;10154;52.474;10.768;2022-10-16T14:23:43;3.27;;;2.13;;
19985;SDS011;10154;52.474;10.768;2022-10-16T14:28:34;4.80;;;2.90;;
19985;SDS011;10154;52.474;10.768;2022-10-16T14:31:02;9.07;;;3.20;;
19985;SDS011;10154;52.474;10.768;2022-10-16T14:36:01;7.30;;;3.43;;
19985;SDS011;10154;52.474;10.768;2022-10-16T14:38:31;9.13;;;3.30;;
19985;SDS011;10154;52.474;10.768;2022-10-16T14:40:58;10.50;;;4.63;;
19985;SDS011;10154;52.474;10.768;2022-10-16T14:43:32;8.67;;;3.00;;
19985;SDS011;10154;52.474;10.768;2022-10-16T14:46:00;5.20;;;2.47;;
19985;SDS011;10154;52.474;10.768;2022-10-16T14:48:46;3.88;;;2.22;;
19985;SDS011;10154;52.474;10.768;2022-10-16T14:51:38;6.17;;;2.60;;
19985;SDS011;10154;52.474;10.768;2022-10-16T14:54:07;7.70;;;2.70;;
19985;SDS011;10154;52.474;10.768;2022-10-16T14:56:34;5.53;;;2.30;;
19985;SDS011;10154;52.474;10.768;2022-10-16T14:59:14;10.60;;;3.10;;
19985;SDS011;10154;52.474;10.768;2022-10-16T15:01:43;6.53;;;2.70;;
19985;SDS011;10154;52.474;10.768;2022-10-16T15:04:10;4.53;;;2.77;;
19985;SDS011;10154;52.474;10.768;2022-10-16T15:06:58;7.10;;;3.00;;
19985;SDS011;10154;52.474;10.768;2022-10-16T15:09:24;10.10;;;3.23;;
19985;SDS011;10154;52.474;10.768;2022-10-16T15:11:49;8.63;;;3.03;;
19985;SDS011;10154;52.474;10.768;2022-10-16T15:14:15;7.80;;;2.93;;
19985;SDS011;10154;52.474;10.768;2022-10-16T15:16:40;9.90;;;3.80;;
19985;SDS011;10154;52.474;10.768;2022-10-16T15:19:06;7.93;;;3.43;;
19985;SDS011;10154;52.474;10.768;2022-10-16T15:21:32;8.70;;;3.47;;
19985;SDS011;10154;52.474;10.768;2022-10-16T15:23:58;8.00;;;3.00;;
19985;SDS011;10154;52.474;10.768;2022-10-16T15:26:25;4.97;;;2.40;;
19985;SDS011;10154;52.474;10.768;2022-10-16T15:28:51;6.53;;;2.97;;
19985;SDS011;10154;52.474;10.768;2022-10-16T15:31:16;6.23;;;2.60;;
19985;SDS011;10154;52.474;10.768;2022-10-16T15:33:42;5.50;;;2.70;;
19985;SDS011;10154;52.474;10.768;2022-10-16T15:36:16;12.10;;;4.40;;
19985;SDS011;10154;52.474;10.768;2022-10-16T15:38:41;7.93;;;3.03;;
19985;SDS011;10154;52.474;10.768;2022-10-16T15:41:07;8.67;;;3.20;;
19985;SDS011;10154;52.474;10.768;2022-10-16T15:43:32;13.00;;;3.60;;
19985;SDS011;10154;52.474;10.768;2022-10-16T15:45:59;7.40;;;3.30;;
19985;SDS011;10154;52.474;10.768;2022-10-16T15:48:26;6.63;;;3.50;;
19985;SDS011;10154;52.474;10.768;2022-10-16T15:50:52;28.13;;;13.37;;
19985;SDS011;10154;52.474;10.768;2022-10-16T15:53:17;17.90;;;8.13;;
19985;SDS011;10154;52.474;10.768;2022-10-16T15:55:43;10.93;;;4.53;;
19985;SDS011;10154;52.474;10.768;2022-10-16T15:58:08;15.40;;;5.77;;
19985;SDS011;10154;52.474;10.768;2022-10-16T16:00:34;45.13;;;22.70;;
19985;SDS011;10154;52.474;10.768;2022-10-16T16:02:59;17.50;;;9.00;;
19985;SDS011;10154;52.474;10.768;2022-10-16T16:05:25;13.97;;;6.77;;
19985;SDS011;10154;52.474;10.768;2022-10-16T16:07:50;28.80;;;13.00;;
19985;SDS011;10154;52.474;10.768;2022-10-16T16:10:16;45.03;;;19.97;;
19985;SDS011;10154;52.474;10.768;2022-10-16T16:12:42;13.63;;;5.80;;
19985;SDS011;10154;52.474;10.768;2022-10-16T16:15:08;15.70;;;5.70;;
19985;SDS011;10154;52.474;10.768;2022-10-16T16:17:34;3.00;;;2.70;;
19985;SDS011;10154;52.474;10.768;2022-10-16T16:20:01;2.90;;;2.70;;
19985;SDS011;10154;52.474;10.768;2022-10-16T16:22:27;3.73;;;2.60;;
19985;SDS011;10154;52.474;10.768;2022-10-16T16:24:53;6.13;;;3.10;;
19985;SDS011;10154;52.474;10.768;2022-10-16T16:27:19;5.90;;;2.87;;
19985;SDS011;10154;52.474;10.768;2022-10-16T16:29:46;6.90;;;3.00;;
19985;SDS011;10154;52.474;10.768;2022-10-16T16:32:12;4.10;;;2.60;;
19985;SDS011;10154;52.474;10.768;2022-10-16T16:34:37;2.47;;;2.27;;
19985;SDS011;10154;52.474;10.768;2022-10-16T16:37:04;6.33;;;3.23;;
19985;SDS011;10154;52.474;10.768;2022-10-16T16:39:30;3.10;;;2.80;;
19985;SDS011;10154;52.474;10.768;2022-10-16T16:41:56;5.37;;;2.60;;
19985;SDS011;10154;52.474;10.768;2022-10-16T16:44:23;2.43;;;2.23;;
19985;SDS011;10154;52.474;10.768;2022-10-16T16:46:49;5.67;;;2.67;;
19985;SDS011;10154;52.474;10.768;2022-10-16T16:49:30;16.93;;;5.00;;
19985;SDS011;10154;52.474;10.768;2022-10-16T16:51:58;16.60;;;6.10;;
19985;SDS011;10154;52.474;10.768;2022-10-16T16:54:23;16.43;;;4.90;;